Time;durP1;ratioP1;P1;durP2;ratioP2;P2;SDS_P1;SDS_P2;PMS_P1;PMS_P2;Temp;Humidity;BMP_temperature;BMP_pressure;BME280_temperature;BME280_humidity;BME280_pressure;Samples;Min_cycle;Max_cycle;Signal;HPM_P1;HPM_P2
2022/06/05 00:00:12;;;;;;;10.50;9.70;;;19.10;99.90;;;;;;4952477;28;20471;-65
2022/06/05 00:02:52;;;;;;;12.53;11.57;;;19.10;99.90;;;;;;4954012;29;20432;-65
2022/06/05 00:05:28;;;;;;;11.63;10.73;;;19.10;99.90;;;;;;4952867;29;20527;-65
2022/06/05 00:08:16;;;;;;;11.53;10.73;;;19.10;99.90;;;;;;4953012;29;20432;-65
2022/06/05 00:10:54;;;;;;;12.03;11.07;;;19.10;99.90;;;;;;4949266;29;20557;-65
2022/06/05 00:13:41;;;;;;;11.60;10.70;;;19.10;99.90;;;;;;4952348;28;20471;-65
2022/06/05 00:16:08;;;;;;;12.43;11.50;;;19.10;99.90;;;;;;4952786;29;20523;-65
2022/06/05 00:18:37;;;;;;;12.47;11.60;;;19.20;99.90;;;;;;4953395;28;20472;-65
2022/06/05 00:21:04;;;;;;;12.27;11.47;;;19.30;99.90;;;;;;4954200;28;20452;-65
2022/06/05 00:23:30;;;;;;;11.57;10.67;;;19.30;99.90;;;;;;4950505;29;20520;-65
2022/06/05 00:26:02;;;;;;;13.37;11.77;;;19.40;99.90;;;;;;4952704;29;20448;-65
2022/06/05 00:29:05;;;;;;;12.60;11.60;;;19.40;99.90;;;;;;4954151;29;20445;-65
2022/06/05 00:31:48;;;;;;;11.73;10.93;;;19.40;99.90;;;;;;4950110;29;20988;-65
2022/06/05 00:34:14;;;;;;;11.27;10.47;;;19.50;99.90;;;;;;4951930;29;20436;-65
2022/06/05 00:37:06;;;;;;;12.23;11.43;;;19.40;99.90;;;;;;4952410;29;20461;-65
2022/06/05 00:39:57;;;;;;;10.67;9.97;;;19.30;99.90;;;;;;4950015;29;20216;-65
2022/06/05 00:42:26;;;;;;;11.90;11.00;;;19.30;99.90;;;;;;4953630;29;20954;-65
2022/06/05 00:44:55;;;;;;;10.90;10.20;;;19.20;99.90;;;;;;4948379;28;20428;-65
2022/06/05 00:47:24;;;;;;;11.17;10.37;;;19.10;99.90;;;;;;4953586;29;20887;-65
2022/06/05 00:50:22;;;;;;;11.30;10.50;;;19.00;99.90;;;;;;4952778;29;20915;-65
2022/06/05 00:52:53;;;;;;;11.93;11.03;;;18.90;99.90;;;;;;4931912;29;20440;-65
2022/06/05 00:55:19;;;;;;;11.50;10.60;;;18.90;99.90;;;;;;4951097;29;20444;-65
2022/06/05 00:57:47;;;;;;;11.27;10.47;;;18.90;99.90;;;;;;4952425;29;20448;-65
2022/06/05 01:00:19;;;;;;;13.33;12.23;;;18.90;99.90;;;;;;4953105;28;21040;-65
2022/06/05 01:02:48;;;;;;;11.10;10.30;;;18.80;99.90;;;;;;4952038;29;20476;-65
2022/06/05 01:05:15;;;;;;;12.57;11.67;;;18.80;99.90;;;;;;4952960;29;20467;-65
2022/06/05 01:07:41;;;;;;;10.30;9.60;;;18.80;99.90;;;;;;4951171;29;20436;-65
2022/06/05 01:10:09;;;;;;;11.43;10.50;;;18.80;99.90;;;;;;4952159;29;20827;-65
2022/06/05 01:13:03;;;;;;;11.60;10.80;;;18.80;99.90;;;;;;4951871;29;20440;-65
2022/06/05 01:15:53;;;;;;;13.50;12.33;;;18.60;99.90;;;;;;4948904;29;20447;-65
2022/06/05 01:18:43;;;;;;;12.73;11.83;;;18.60;99.90;;;;;;4950959;29;20436;-65
2022/06/05 01:21:08;;;;;;;12.37;11.33;;;18.50;99.90;;;;;;4951243;28;20552;-65
2022/06/05 01:23:58;;;;;;;14.00;12.80;;;18.50;99.90;;;;;;4952293;29;20937;-65
2022/06/05 01:26:49;;;;;;;11.47;10.73;;;18.60;99.90;;;;;;4952483;29;20185;-65
2022/06/05 01:29:20;;;;;;;13.17;12.27;;;18.60;99.90;;;;;;4953680;29;20997;-65
2022/06/05 01:31:57;;;;;;;15.70;13.33;;;18.60;99.90;;;;;;4952264;28;20496;-65
2022/06/05 01:34:32;;;;;;;12.77;11.77;;;18.60;99.90;;;;;;4953218;28;20511;-65
2022/06/05 01:37:30;;;;;;;14.57;12.13;;;18.60;99.90;;;;;;4946714;29;20443;-65
2022/06/05 01:40:17;;;;;;;13.67;12.50;;;18.60;99.90;;;;;;4933959;28;20464;-65
2022/06/05 01:42:47;;;;;;;11.33;10.43;;;18.50;99.90;;;;;;4951644;29;20876;-65
2022/06/05 01:45:44;;;;;;;11.73;10.80;;;18.50;99.90;;;;;;4952449;28;20922;-65
2022/06/05 01:48:14;;;;;;;11.87;10.97;;;18.50;99.90;;;;;;4951756;29;20437;-65
2022/06/05 01:50:46;;;;;;;13.17;12.17;;;18.40;99.90;;;;;;4951318;29;20985;-65
2022/06/05 01:53:32;;;;;;;13.73;12.73;;;18.40;99.90;;;;;;4952167;29;20468;-65
2022/06/05 01:56:23;;;;;;;12.53;11.70;;;18.50;99.90;;;;;;4949369;29;20468;-65
2022/06/05 01:58:58;;;;;;;12.50;11.70;;;18.40;99.90;;;;;;4951320;29;20475;-65
2022/06/05 02:01:31;;;;;;;12.93;11.90;;;18.40;99.90;;;;;;4952490;28;20526;-65
2022/06/05 02:04:04;;;;;;;12.20;11.37;;;18.40;99.90;;;;;;4950165;29;20439;-65
2022/06/05 02:06:43;;;;;;;13.30;12.20;;;18.40;99.90;;;;;;4948096;29;20801;-65
2022/06/05 02:09:18;;;;;;;13.97;12.77;;;18.40;99.90;;;;;;4949234;29;20847;-65
2022/06/05 02:11:45;;;;;;;12.83;11.93;;;18.40;99.90;;;;;;4952419;28;20495;-65
2022/06/05 02:14:11;;;;;;;14.83;13.43;;;18.30;99.90;;;;;;4952681;29;20530;-65
2022/06/05 02:16:38;;;;;;;13.20;12.30;;;18.40;99.90;;;;;;4951095;29;20436;-65
2022/06/05 02:19:12;;;;;;;13.37;12.37;;;18.40;99.90;;;;;;4951189;29;20830;-65
2022/06/05 02:21:38;;;;;;;12.90;11.90;;;18.50;99.90;;;;;;4952396;28;20843;-65
2022/06/05 02:24:05;;;;;;;12.57;11.70;;;18.50;99.90;;;;;;4951970;29;20957;-65
2022/06/05 02:26:31;;;;;;;13.23;12.10;;;18.60;99.90;;;;;;4951646;29;20432;-65
2022/06/05 02:28:57;;;;;;;13.17;12.10;;;18.50;99.90;;;;;;4951002;29;20447;-65
2022/06/05 02:31:51;;;;;;;12.53;11.73;;;18.50;99.90;;;;;;4951618;28;20212;-65
2022/06/05 02:34:50;;;;;;;12.60;11.60;;;18.40;99.90;;;;;;4955779;28;20187;-65
2022/06/05 02:37:29;;;;;;;14.97;13.70;;;18.40;99.90;;;;;;4935992;29;21017;-65
2022/06/05 02:40:07;;;;;;;13.13;11.83;;;18.30;99.90;;;;;;4952702;29;20475;-65
2022/06/05 02:42:45;;;;;;;13.60;12.60;;;18.30;99.90;;;;;;4951167;29;20811;-65
2022/06/05 02:45:35;;;;;;;13.90;12.90;;;18.30;99.90;;;;;;4955549;29;20518;-65
2022/06/05 02:48:08;;;;;;;16.07;14.87;;;18.30;99.90;;;;;;4955430;28;20440;-64
2022/06/05 02:50:49;;;;;;;13.87;12.87;;;18.20;99.90;;;;;;4951859;29;20510;-65
2022/06/05 02:53:15;;;;;;;14.57;13.47;;;18.20;99.90;;;;;;4955491;29;20548;-65
2022/06/05 02:55:41;;;;;;;14.37;13.37;;;18.20;99.90;;;;;;4955343;29;20525;-65
2022/06/05 02:58:08;;;;;;;15.13;13.90;;;18.20;99.90;;;;;;4953901;29;20507;-65
2022/06/05 03:00:36;;;;;;;14.00;13.00;;;18.20;99.90;;;;;;4955480;28;20468;-65
2022/06/05 03:05:45;;;;;;;14.63;13.47;;;18.20;99.90;;;;;;4950203;29;20524;-65
2022/06/05 03:08:13;;;;;;;13.97;12.87;;;18.20;99.90;;;;;;4954790;29;21009;-65
2022/06/05 03:10:41;;;;;;;14.37;13.27;;;18.30;99.90;;;;;;4953926;29;20267;-65
2022/06/05 03:13:07;;;;;;;15.57;14.37;;;18.30;99.90;;;;;;4953840;28;20468;-65
2022/06/05 03:15:33;;;;;;;14.50;13.30;;;18.30;99.90;;;;;;4954795;29;20448;-65
2022/06/05 03:17:59;;;;;;;15.90;14.47;;;18.40;99.90;;;;;;4953697;29;20251;-65
2022/06/05 03:20:24;;;;;;;15.70;14.37;;;18.30;99.90;;;;;;4954953;28;20477;-65
2022/06/05 03:22:50;;;;;;;16.03;14.73;;;18.40;99.90;;;;;;4954911;29;20180;-65
2022/06/05 03:25:21;;;;;;;14.40;13.40;;;18.50;99.90;;;;;;4954337;29;20181;-65
2022/06/05 03:27:47;;;;;;;16.40;15.10;;;18.50;99.90;;;;;;4955601;29;20439;-65
2022/06/05 03:30:14;;;;;;;14.73;13.63;;;18.60;99.90;;;;;;4952705;28;20547;-65
2022/06/05 03:32:40;;;;;;;13.83;12.93;;;18.60;99.90;;;;;;4954518;29;20185;-65
2022/06/05 03:35:06;;;;;;;14.00;12.90;;;18.60;99.90;;;;;;4955078;29;20479;-65
2022/06/05 03:37:32;;;;;;;14.40;13.40;;;18.60;99.90;;;;;;4955296;29;20471;-65
2022/06/05 03:39:58;;;;;;;14.20;13.20;;;18.60;99.90;;;;;;4954518;29;20464;-65
2022/06/05 03:42:24;;;;;;;13.90;12.87;;;18.60;99.90;;;;;;4953619;29;20820;-65
2022/06/05 03:44:49;;;;;;;13.97;12.87;;;18.60;99.90;;;;;;4953219;28;20176;-65
2022/06/05 03:47:15;;;;;;;13.30;12.40;;;18.50;99.90;;;;;;4954160;29;20535;-65
2022/06/05 03:49:41;;;;;;;13.63;12.63;;;18.50;99.90;;;;;;4953433;29;20705;-64
2022/06/05 03:52:09;;;;;;;14.23;13.23;;;18.60;99.90;;;;;;4954178;29;20686;-65
2022/06/05 03:54:34;;;;;;;16.00;14.63;;;18.60;99.90;;;;;;4954025;29;20886;-64
2022/06/05 03:57:02;;;;;;;15.70;14.40;;;18.50;99.90;;;;;;4954917;29;20490;-64
2022/06/05 03:59:27;;;;;;;15.23;13.93;;;18.40;99.90;;;;;;4953674;29;20209;-64
2022/06/05 04:01:53;;;;;;;15.77;14.60;;;18.40;99.90;;;;;;4954118;28;20463;-65
2022/06/05 04:04:18;;;;;;;15.47;14.27;;;18.40;99.90;;;;;;4954193;29;20176;-65
2022/06/05 04:06:44;;;;;;;14.40;13.40;;;18.40;99.90;;;;;;4953056;29;20203;-65
2022/06/05 04:09:10;;;;;;;15.27;13.83;;;18.40;99.90;;;;;;4953528;29;20288;-65
2022/06/05 04:11:38;;;;;;;15.27;14.07;;;18.40;99.90;;;;;;4953038;28;20327;-65
2022/06/05 04:14:05;;;;;;;14.87;13.77;;;18.40;99.90;;;;;;4954699;29;20785;-65
2022/06/05 04:16:31;;;;;;;13.30;12.30;;;18.30;99.90;;;;;;4953443;29;20491;-64
2022/06/05 04:18:59;;;;;;;14.37;13.37;;;18.30;99.90;;;;;;4953741;28;20978;-65
2022/06/05 04:21:27;;;;;;;14.23;13.00;;;18.30;99.90;;;;;;4953340;28;20452;-65
2022/06/05 04:23:54;;;;;;;13.20;12.30;;;18.30;99.90;;;;;;4954063;29;20432;-65
2022/06/05 04:26:23;;;;;;;15.43;14.33;;;18.30;99.90;;;;;;4953667;28;20437;-64
2022/06/05 04:28:49;;;;;;;14.47;13.20;;;18.20;99.90;;;;;;4953966;29;20472;-64
2022/06/05 04:31:36;;;;;;;14.90;13.80;;;18.20;99.90;;;;;;4952666;28;20461;-64
2022/06/05 04:34:05;;;;;;;14.70;13.50;;;18.20;99.90;;;;;;4952871;29;20503;-64
2022/06/05 04:36:34;;;;;;;15.77;14.67;;;18.20;99.90;;;;;;4951587;29;20448;-64
2022/06/05 04:39:00;;;;;;;15.90;14.70;;;18.10;99.90;;;;;;4952867;29;20467;-64
2022/06/05 04:41:26;;;;;;;14.83;13.50;;;18.10;99.90;;;;;;4953532;29;20887;-66
2022/06/05 04:43:53;;;;;;;15.37;14.13;;;18.10;99.90;;;;;;4954258;29;20185;-64
2022/06/05 04:46:20;;;;;;;17.37;16.00;;;18.10;99.90;;;;;;4953675;28;20471;-64
2022/06/05 04:48:46;;;;;;;16.60;15.30;;;18.10;99.90;;;;;;4952052;28;20456;-64
2022/06/05 04:51:15;;;;;;;15.00;13.90;;;18.10;99.90;;;;;;4953917;28;20467;-65
2022/06/05 04:53:42;;;;;;;15.07;13.73;;;18.10;99.90;;;;;;4953667;29;20440;-64
2022/06/05 04:56:11;;;;;;;16.13;14.73;;;18.20;99.90;;;;;;4953709;28;20634;-64
2022/06/05 04:58:38;;;;;;;17.80;16.40;;;18.10;99.90;;;;;;4950227;29;21010;-64
2022/06/05 05:01:20;;;;;;;17.10;15.53;;;18.00;99.90;;;;;;4949105;28;20492;-64
2022/06/05 05:03:46;;;;;;;19.00;17.20;;;18.00;99.90;;;;;;4953797;29;20436;-64
2022/06/05 05:06:12;;;;;;;18.37;16.90;;;18.00;99.90;;;;;;4952225;29;20814;-65
2022/06/05 05:08:37;;;;;;;18.20;16.60;;;17.90;99.90;;;;;;4951975;29;20445;-64
2022/06/05 05:11:03;;;;;;;18.00;16.50;;;17.90;99.90;;;;;;4952967;28;20973;-65
2022/06/05 05:13:29;;;;;;;18.70;17.30;;;17.90;99.90;;;;;;4952688;29;20184;-64
2022/06/05 05:15:57;;;;;;;21.17;19.37;;;17.80;99.90;;;;;;4952106;29;20557;-64
2022/06/05 05:18:24;;;;;;;22.47;20.67;;;17.70;99.90;;;;;;4952467;29;20547;-64
2022/06/05 05:20:50;;;;;;;22.07;19.97;;;17.60;99.90;;;;;;4952580;28;20997;-64
2022/06/05 05:23:15;;;;;;;23.83;21.83;;;17.50;99.90;;;;;;4953632;28;20475;-64
2022/06/05 05:25:41;;;;;;;24.07;22.07;;;17.50;99.90;;;;;;4953868;29;20208;-65
2022/06/05 05:28:07;;;;;;;24.97;23.00;;;17.50;99.90;;;;;;4953078;29;20181;-64
2022/06/05 05:30:33;;;;;;;22.60;20.80;;;17.50;99.90;;;;;;4953864;29;20197;-64
2022/06/05 05:32:59;;;;;;;23.10;21.30;;;17.40;99.90;;;;;;4951874;29;20197;-65
2022/06/05 05:35:25;;;;;;;24.03;22.03;;;17.40;99.90;;;;;;4953346;28;20444;-65
2022/06/05 05:37:50;;;;;;;23.00;21.10;;;17.50;99.90;;;;;;4952692;28;20184;-65
2022/06/05 05:43:00;;;;;;;23.00;20.70;;;17.50;99.90;;;;;;4951039;29;20275;-66
2022/06/05 05:45:25;;;;;;;24.97;22.57;;;17.50;99.90;;;;;;4951746;29;20464;-65
2022/06/05 05:47:51;;;;;;;24.00;22.00;;;17.40;99.90;;;;;;4951776;29;20655;-65
2022/06/05 05:50:17;;;;;;;26.73;24.23;;;17.30;99.90;;;;;;4952838;28;20191;-66
2022/06/05 05:52:44;;;;;;;25.90;23.53;;;17.30;99.90;;;;;;4950774;29;20183;-66
2022/06/05 05:55:16;;;;;;;24.80;22.50;;;17.30;99.90;;;;;;4950447;29;20673;-65
2022/06/05 05:57:41;;;;;;;25.70;23.30;;;17.30;99.90;;;;;;4944190;28;21006;-67
2022/06/05 06:00:10;;;;;;;27.67;24.87;;;17.20;99.90;;;;;;4952271;28;20468;-65
2022/06/05 06:02:36;;;;;;;25.97;23.80;;;17.20;99.90;;;;;;4952886;29;20185;-65
2022/06/05 06:05:03;;;;;;;26.60;24.03;;;17.10;99.90;;;;;;4952522;29;20441;-65
2022/06/05 06:07:29;;;;;;;25.03;22.80;;;17.00;99.90;;;;;;4948141;28;20455;-65
2022/06/05 06:09:55;;;;;;;25.23;23.03;;;16.90;99.90;;;;;;4958228;29;20460;-65
2022/06/05 06:12:21;;;;;;;24.60;22.40;;;16.80;99.90;;;;;;4957652;29;20741;-65
2022/06/05 06:14:46;;;;;;;24.47;22.17;;;16.80;99.90;;;;;;4957652;28;20181;-65
2022/06/05 06:17:13;;;;;;;22.67;20.67;;;16.80;99.90;;;;;;4957763;28;20456;-66
2022/06/05 06:19:39;;;;;;;21.67;19.87;;;16.70;99.90;;;;;;4959130;29;20837;-65
2022/06/05 06:22:05;;;;;;;22.03;20.27;;;16.70;99.90;;;;;;4957826;28;20204;-65
2022/06/05 06:24:31;;;;;;;18.63;16.80;;;16.70;99.90;;;;;;4958532;28;20597;-65
2022/06/05 06:26:56;;;;;;;15.60;14.20;;;16.70;99.90;;;;;;4958133;29;20467;-64
2022/06/05 06:29:22;;;;;;;17.73;16.23;;;16.70;99.90;;;;;;4959050;29;20887;-65
2022/06/05 06:31:47;;;;;;;16.57;15.07;;;16.70;99.90;;;;;;4958642;29;20216;-65
2022/06/05 06:34:13;;;;;;;12.73;11.63;;;16.70;99.90;;;;;;4959962;29;20180;-64
2022/06/05 06:36:39;;;;;;;12.60;11.50;;;16.70;99.90;;;;;;4959981;28;20207;-65
2022/06/05 06:39:05;;;;;;;12.00;10.90;;;16.80;99.90;;;;;;4959664;28;20552;-66
2022/06/05 06:41:31;;;;;;;9.40;8.50;;;16.80;99.90;;;;;;4959952;28;20444;-65
2022/06/05 06:43:56;;;;;;;8.03;7.23;;;16.90;99.90;;;;;;4960005;28;20188;-65
2022/06/05 06:46:22;;;;;;;8.53;7.73;;;16.90;99.90;;;;;;4959839;28;20177;-65
2022/06/05 06:48:48;;;;;;;9.00;8.30;;;17.00;99.90;;;;;;4959895;28;20251;-65
2022/06/05 06:51:16;;;;;;;8.70;8.00;;;17.00;99.90;;;;;;4959957;28;20212;-65
2022/06/05 06:53:42;;;;;;;9.53;8.73;;;17.00;99.90;;;;;;4959670;28;20439;-64
2022/06/05 06:56:12;;;;;;;9.23;8.43;;;17.00;99.90;;;;;;4959886;28;20439;-65
2022/06/05 06:58:39;;;;;;;12.17;10.73;;;16.90;99.90;;;;;;4959404;28;20515;-65
2022/06/05 07:01:05;;;;;;;11.07;10.13;;;16.90;99.90;;;;;;4959723;28;20534;-65
2022/06/05 07:03:33;;;;;;;14.27;12.00;;;16.90;99.90;;;;;;4959871;28;20451;-66
2022/06/05 07:06:00;;;;;;;11.10;10.20;;;16.90;99.90;;;;;;4959814;28;20517;-65
2022/06/05 07:08:25;;;;;;;10.80;9.60;;;16.90;99.90;;;;;;4959431;28;20423;-65
2022/06/05 07:10:51;;;;;;;12.10;11.00;;;16.90;99.90;;;;;;4959459;28;20467;-64
2022/06/05 07:13:16;;;;;;;12.00;10.90;;;16.90;99.90;;;;;;4959655;28;20173;-65
2022/06/05 07:15:42;;;;;;;13.13;12.13;;;16.90;99.90;;;;;;4959939;28;20248;-66
2022/06/05 07:18:08;;;;;;;8.23;7.40;;;16.90;99.90;;;;;;4958701;28;20214;-64
2022/06/05 07:20:36;;;;;;;9.37;8.60;;;16.90;99.90;;;;;;4956375;28;20215;-64
2022/06/05 07:23:03;;;;;;;8.53;7.73;;;16.90;99.90;;;;;;4956692;28;20181;-65
2022/06/05 07:25:30;;;;;;;10.37;9.30;;;16.90;99.90;;;;;;4956527;28;20429;-64
2022/06/05 07:27:55;;;;;;;8.83;8.07;;;17.00;99.90;;;;;;4954597;28;20459;-64
2022/06/05 07:30:21;;;;;;;10.00;9.10;;;17.00;99.90;;;;;;4954630;28;20502;-66
2022/06/05 07:32:47;;;;;;;12.80;10.73;;;16.90;99.90;;;;;;4954381;29;20271;-64
2022/06/05 07:35:13;;;;;;;10.17;9.27;;;17.00;99.90;;;;;;4953195;29;20185;-64
2022/06/05 07:37:39;;;;;;;8.73;8.03;;;17.00;99.90;;;;;;4955293;29;20266;-64
2022/06/05 07:40:06;;;;;;;7.70;7.10;;;17.00;99.90;;;;;;4954551;28;20464;-66
2022/06/05 07:42:34;;;;;;;9.20;8.40;;;16.90;99.90;;;;;;4954725;29;20463;-64
2022/06/05 07:45:00;;;;;;;7.70;6.97;;;16.90;99.90;;;;;;4954616;29;20438;-66
2022/06/05 07:47:26;;;;;;;8.63;7.83;;;16.90;99.90;;;;;;4954078;29;20440;-64
2022/06/05 07:49:51;;;;;;;8.80;7.90;;;17.00;99.90;;;;;;4953894;29;20192;-64
2022/06/05 07:55:01;;;;;;;8.83;8.03;;;17.10;99.90;;;;;;4954196;29;20618;-65
2022/06/05 07:57:26;;;;;;;8.90;8.00;;;17.20;99.90;;;;;;4954940;29;20436;-64
2022/06/05 07:59:52;;;;;;;9.30;7.07;;;17.20;99.90;;;;;;4953523;29;20213;-64
2022/06/05 08:02:20;;;;;;;7.80;7.20;;;17.20;99.90;;;;;;4953426;28;20295;-64
2022/06/05 08:04:46;;;;;;;11.13;6.60;;;17.30;99.90;;;;;;4953945;28;20213;-65
2022/06/05 08:07:14;;;;;;;8.67;7.30;;;17.40;99.90;;;;;;4952398;29;20935;-65
2022/06/05 08:09:41;;;;;;;6.93;6.27;;;17.40;99.90;;;;;;4953337;29;20456;-65
2022/06/05 08:12:09;;;;;;;7.23;6.57;;;17.50;99.90;;;;;;4953798;28;20468;-65
2022/06/05 08:14:36;;;;;;;7.73;7.00;;;17.60;99.90;;;;;;4953161;29;20544;-65
2022/06/05 08:17:04;;;;;;;6.73;6.03;;;17.80;99.90;;;;;;4953915;29;20532;-65
2022/06/05 08:19:30;;;;;;;7.47;6.77;;;17.90;99.90;;;;;;4953526;29;20546;-64
2022/06/05 08:21:56;;;;;;;5.40;4.77;;;18.20;99.90;;;;;;4953638;28;20606;-65
2022/06/05 08:24:22;;;;;;;5.37;4.93;;;18.40;99.90;;;;;;4953212;29;20515;-65
2022/06/05 08:26:48;;;;;;;4.90;4.50;;;18.60;99.90;;;;;;4953637;29;20189;-65
2022/06/05 08:29:14;;;;;;;5.17;4.03;;;18.80;99.90;;;;;;4952305;28;20188;-66
2022/06/05 08:31:40;;;;;;;5.50;4.63;;;19.00;99.90;;;;;;4953270;28;20460;-65
2022/06/05 08:34:06;;;;;;;5.70;5.27;;;19.20;99.90;;;;;;4953313;29;20568;-65
2022/06/05 08:36:33;;;;;;;4.73;4.00;;;19.30;99.90;;;;;;4952895;29;20239;-65
2022/06/05 08:42:05;;;;;;;7.23;3.93;;;19.50;99.90;;;;;;4953700;29;20522;-65
2022/06/05 08:44:38;;;;;;;4.70;4.30;;;19.60;99.90;;;;;;4951826;29;20433;-66
2022/06/05 08:47:15;;;;;;;4.37;3.60;;;19.90;99.90;;;;;;4953199;29;20898;-65
2022/06/05 08:49:45;;;;;;;5.57;4.27;;;20.00;99.90;;;;;;4952922;29;20489;-65
2022/06/05 08:52:11;;;;;;;3.47;3.17;;;20.30;99.90;;;;;;4953126;28;20464;-65
2022/06/05 08:54:54;;;;;;;3.83;3.53;;;20.90;99.90;;;;;;4952473;29;20440;-65
2022/06/05 08:57:30;;;;;;;3.53;2.90;;;21.30;99.90;;;;;;4951793;28;20189;-65
2022/06/05 09:00:06;;;;;;;4.07;2.57;;;21.60;99.90;;;;;;4952103;28;20472;-64
2022/06/05 09:02:59;;;;;;;4.50;2.83;;;22.20;99.90;;;;;;4952270;29;20527;-64
2022/06/05 09:05:30;;;;;;;3.00;2.77;;;22.50;99.90;;;;;;4948898;29;20432;-65
2022/06/05 09:07:59;;;;;;;3.10;2.90;;;22.40;99.90;;;;;;4949540;29;20946;-64
2022/06/05 09:10:52;;;;;;;4.50;2.70;;;22.20;99.90;;;;;;4952003;29;20687;-65
2022/06/05 09:13:34;;;;;;;3.50;3.20;;;22.00;99.90;;;;;;4952115;29;20499;-65
2022/06/05 09:16:00;;;;;;;3.43;3.23;;;22.50;99.90;;;;;;4954392;29;20408;-64
2022/06/05 09:18:35;;;;;;;4.23;3.30;;;22.60;99.90;;;;;;4954003;29;20420;-66
2022/06/05 09:21:06;;;;;;;4.10;2.80;;;22.40;99.90;;;;;;4954385;29;20443;-65
2022/06/05 09:23:41;;;;;;;3.40;3.10;;;22.30;99.90;;;;;;4954687;29;20457;-64
2022/06/05 09:26:22;;;;;;;3.40;3.10;;;22.10;99.90;;;;;;4954413;29;20826;-64
2022/06/05 09:29:18;;;;;;;3.53;3.00;;;22.20;99.90;;;;;;4953740;29;20483;-65
2022/06/05 09:31:57;;;;;;;3.10;2.90;;;22.30;99.90;;;;;;4954105;29;21084;-65
2022/06/05 09:34:34;;;;;;;3.33;2.53;;;22.40;99.90;;;;;;4948377;29;20534;-65
2022/06/05 09:37:19;;;;;;;2.47;2.27;;;22.40;99.90;;;;;;4951717;29;20432;-65
2022/06/05 09:39:51;;;;;;;4.47;2.43;;;22.70;99.90;;;;;;4948058;29;20479;-65
2022/06/05 09:42:23;;;;;;;2.30;2.13;;;23.00;99.90;;;;;;4950573;28;20882;-66
2022/06/05 09:45:33;;;;;;;2.53;2.00;;;22.90;99.90;;;;;;4951652;29;20527;-66
2022/06/05 09:48:18;;;;;;;2.50;2.13;;;23.00;99.90;;;;;;4953041;28;20996;-64
2022/06/05 09:50:43;;;;;;;2.90;2.70;;;23.30;99.90;;;;;;4951776;28;20491;-65
2022/06/05 09:53:15;;;;;;;2.40;2.20;;;23.30;99.90;;;;;;4951233;28;20472;-64
2022/06/05 09:55:43;;;;;;;3.00;2.00;;;23.00;99.90;;;;;;4950388;29;20196;-65
2022/06/05 09:58:24;;;;;;;1.93;1.83;;;23.50;99.90;;;;;;4952601;29;20806;-65
2022/06/05 10:00:53;;;;;;;4.80;3.30;;;24.10;99.90;;;;;;4946851;28;20818;-66
2022/06/05 10:03:21;;;;;;;2.80;2.20;;;24.60;99.90;;;;;;4950456;28;20858;-65
2022/06/05 10:06:17;;;;;;;2.80;2.10;;;24.80;99.90;;;;;;4951363;29;20436;-65
2022/06/05 10:08:55;;;;;;;2.90;2.50;;;25.30;99.90;;;;;;4951993;29;20443;-66
2022/06/05 10:11:27;;;;;;;2.57;2.37;;;25.20;99.90;;;;;;4951316;29;20482;-65
2022/06/05 10:14:25;;;;;;;1.83;1.73;;;25.40;99.90;;;;;;4952304;29;20437;-65
2022/06/05 10:17:05;;;;;;;3.60;2.53;;;24.90;99.90;;;;;;4928823;29;21037;-64
2022/06/05 10:19:52;;;;;;;4.40;3.10;;;24.10;99.90;;;;;;4946424;29;20985;-64
2022/06/05 10:22:27;;;;;;;2.80;2.60;;;23.40;99.90;;;;;;4950440;28;20460;-65
2022/06/05 10:25:17;;;;;;;3.53;3.23;;;22.90;99.90;;;;;;4952139;28;20442;-64
2022/06/05 10:27:51;;;;;;;2.97;2.40;;;22.60;99.90;;;;;;4951172;28;20950;-64
2022/06/05 10:30:19;;;;;;;2.73;2.53;;;22.30;99.90;;;;;;4950408;28;20448;-64
2022/06/05 10:32:50;;;;;;;5.50;4.10;;;22.10;99.90;;;;;;4952077;28;20989;-65
2022/06/05 10:35:54;;;;;;;5.63;3.77;;;21.70;99.90;;;;;;4951078;29;20514;-64
2022/06/05 10:38:34;;;;;;;4.63;4.23;;;21.30;99.90;;;;;;4951676;29;20436;-65
2022/06/05 10:41:19;;;;;;;5.57;5.13;;;20.90;99.90;;;;;;4952094;28;20980;-65
2022/06/05 10:44:04;;;;;;;7.53;5.07;;;20.60;99.90;;;;;;4951065;29;20433;-67
2022/06/05 10:46:32;;;;;;;7.43;6.73;;;20.20;99.90;;;;;;4944151;29;20696;-66
2022/06/05 10:49:06;;;;;;;8.70;7.47;;;19.80;99.90;;;;;;4951406;29;20448;-67
2022/06/05 10:51:38;;;;;;;8.93;7.03;;;19.60;99.90;;;;;;4950057;29;20535;-66
2022/06/05 10:54:19;;;;;;;10.83;9.93;;;19.40;99.90;;;;;;4953807;28;20432;-66
2022/06/05 10:56:51;;;;;;;8.13;7.33;;;19.30;99.90;;;;;;4954556;29;20794;-66
2022/06/05 10:59:55;;;;;;;9.87;8.97;;;19.20;99.90;;;;;;4954014;29;20460;-66
2022/06/05 11:02:40;;;;;;;13.57;9.50;;;19.10;99.90;;;;;;4953208;29;20462;-66
2022/06/05 11:05:36;;;;;;;8.20;7.60;;;19.10;99.90;;;;;;4954400;29;20495;-66
2022/06/05 11:08:26;;;;;;;10.03;8.80;;;19.00;99.90;;;;;;4951465;29;20937;-66
2022/06/05 11:14:11;;;;;;;12.00;10.00;;;18.90;99.90;;;;;;4948438;29;20439;-65
2022/06/05 11:16:53;;;;;;;10.33;8.87;;;18.90;99.90;;;;;;4948512;29;20463;-66
2022/06/05 11:19:35;;;;;;;11.73;10.60;;;18.90;99.90;;;;;;4953846;29;20464;-66
2022/06/05 11:22:05;;;;;;;11.60;10.03;;;19.00;99.90;;;;;;4955322;28;20484;-66
2022/06/05 11:24:43;;;;;;;12.00;8.43;;;19.00;99.90;;;;;;4953121;29;20447;-65
2022/06/05 11:27:25;;;;;;;10.40;8.33;;;19.00;99.90;;;;;;4953877;29;20974;-65
2022/06/05 11:30:11;;;;;;;8.30;7.20;;;19.00;99.90;;;;;;4948767;29;20436;-65
2022/06/05 11:32:57;;;;;;;8.40;7.60;;;19.00;99.90;;;;;;4953671;29;20546;-66
2022/06/05 11:35:55;;;;;;;6.30;5.80;;;19.10;99.90;;;;;;4953625;29;21260;-66
2022/06/05 11:38:47;;;;;;;7.73;6.60;;;19.20;99.90;;;;;;4953578;29;20573;-65
2022/06/05 11:41:25;;;;;;;12.20;7.77;;;19.50;99.90;;;;;;4943522;29;20914;-65
2022/06/05 11:44:32;;;;;;;7.90;6.60;;;19.90;99.90;;;;;;4949694;29;20997;-66
2022/06/05 11:47:08;;;;;;;7.73;6.03;;;20.50;99.90;;;;;;4949794;29;20440;-65
2022/06/05 11:50:06;;;;;;;5.93;5.43;;;21.40;99.90;;;;;;4953372;29;20967;-66
2022/06/05 11:52:41;;;;;;;4.87;4.37;;;22.60;99.90;;;;;;4952165;29;20444;-66
2022/06/05 11:55:13;;;;;;;3.93;3.63;;;24.20;99.90;;;;;;4954492;29;20515;-65
2022/06/05 11:57:42;;;;;;;4.50;3.77;;;25.40;99.90;;;;;;4953121;28;20542;-67
2022/06/05 12:00:15;;;;;;;3.43;3.20;;;26.40;99.90;;;;;;4953523;29;20502;-65
2022/06/05 12:02:53;;;;;;;5.17;3.40;;;26.40;99.90;;;;;;4954143;29;20441;-66
2022/06/05 12:05:29;;;;;;;3.27;2.97;;;26.10;99.90;;;;;;4953169;28;20498;-66
2022/06/05 12:08:08;;;;;;;3.73;3.40;;;26.30;99.90;;;;;;4948779;29;20428;-66
2022/06/05 12:10:39;;;;;;;5.77;3.40;;;27.80;99.90;;;;;;4953453;29;20479;-66
2022/06/05 12:13:30;;;;;;;5.20;3.50;;;26.70;99.90;;;;;;4953786;29;20483;-65
2022/06/05 12:16:08;;;;;;;3.53;3.10;;;24.90;99.90;;;;;;4949706;29;20811;-67
2022/06/05 12:18:58;;;;;;;3.30;3.00;;;24.00;99.90;;;;;;4952624;29;20514;-66
2022/06/05 12:21:34;;;;;;;4.17;3.20;;;23.20;99.90;;;;;;4953418;28;20460;-66
2022/06/05 12:24:07;;;;;;;3.80;3.40;;;23.20;99.90;;;;;;4953942;29;20444;-67
2022/06/05 12:26:50;;;;;;;3.50;3.20;;;23.00;99.90;;;;;;4953152;29;20487;-66
2022/06/05 12:29:31;;;;;;;4.63;3.23;;;22.70;99.90;;;;;;4951897;28;20444;-65
2022/06/05 12:32:07;;;;;;;4.50;3.30;;;22.60;99.90;;;;;;4950466;29;20475;-66
2022/06/05 12:34:56;;;;;;;3.97;3.03;;;22.80;99.90;;;;;;4952350;29;20555;-65
2022/06/05 12:37:28;;;;;;;5.70;3.50;;;23.20;99.90;;;;;;4953700;29;20650;-67
2022/06/05 12:39:56;;;;;;;4.80;2.90;;;24.30;99.90;;;;;;4952367;29;20464;-66
2022/06/05 12:42:30;;;;;;;7.10;3.57;;;25.70;99.90;;;;;;4953384;28;21001;-66
2022/06/05 12:44:59;;;;;;;4.23;3.63;;;26.90;99.90;;;;;;4953668;28;20440;-65
2022/06/05 12:47:39;;;;;;;3.27;2.97;;;27.80;99.90;;;;;;4954211;29;20436;-65
2022/06/05 12:50:37;;;;;;;6.17;2.73;;;29.00;99.90;;;;;;4952052;29;20447;-66
2022/06/05 12:53:30;;;;;;;3.13;2.83;;;28.80;99.90;;;;;;4952969;29;20976;-65
2022/06/05 12:56:07;;;;;;;3.53;3.07;;;26.70;99.90;;;;;;4950145;29;20440;-65
2022/06/05 12:58:52;;;;;;;3.40;3.10;;;25.60;99.90;;;;;;4944777;29;20436;-66
2022/06/05 13:01:25;;;;;;;4.50;3.13;;;25.20;99.90;;;;;;4952241;29;20460;-66
2022/06/05 13:04:36;;;;;;;4.20;3.10;;;26.00;99.90;;;;;;4949225;29;20841;-67
2022/06/05 13:07:09;;;;;;;4.80;3.20;;;26.30;99.90;;;;;;4871177;29;20481;-66
2022/06/05 13:09:46;;;;;;;3.57;3.27;;;27.00;99.90;;;;;;4938990;29;20463;-66
2022/06/05 13:12:30;;;;;;;3.77;3.40;;;26.90;99.90;;;;;;4949061;28;20458;-65
2022/06/05 13:15:18;;;;;;;7.43;3.20;;;26.60;99.90;;;;;;4950295;29;20479;-67
2022/06/05 13:18:10;;;;;;;3.50;3.20;;;25.20;99.90;;;;;;4947772;29;20448;-66
2022/06/05 13:20:51;;;;;;;3.77;2.50;;;24.60;99.90;;;;;;4913034;29;20479;-66